createdAt,value
2023-04-28T00:03:21.084Z,2.46
2023-04-28T00:07:20.396Z,2.46
2023-04-28T00:11:20.244Z,2.46
2023-04-28T00:15:20.571Z,2.46
2023-04-28T00:19:21.043Z,2.46
2023-04-28T00:23:20.569Z,2.47
2023-04-28T00:27:20.686Z,2.47
2023-04-28T00:31:20.913Z,2.47
2023-04-28T00:35:20.880Z,2.48
2023-04-28T00:39:20.861Z,2.48
2023-04-28T00:43:20.946Z,2.5
2023-04-28T00:47:21.079Z,2.5
2023-04-28T00:51:20.888Z,2.5
2023-04-28T00:55:21.088Z,2.5
2023-04-28T00:59:20.295Z,2.5
2023-04-28T01:03:22.093Z,2.5
2023-04-28T01:07:20.696Z,2.5
2023-04-28T01:11:20.676Z,2.5
2023-04-28T01:15:20.664Z,2.5
2023-04-28T01:19:20.965Z,2.5
2023-04-28T01:23:20.550Z,2.5
2023-04-28T01:27:20.705Z,2.5
2023-04-28T01:31:21.168Z,2.5
2023-04-28T01:35:19.968Z,2.5
2023-04-28T01:39:20.112Z,2.5
2023-04-28T01:43:20.403Z,2.5
2023-04-28T01:47:20.875Z,2.5
2023-04-28T01:51:20.695Z,2.5
2023-04-28T01:55:21.438Z,2.5
2023-04-28T01:59:20.048Z,2.51
2023-04-28T02:03:21.806Z,2.51
2023-04-28T02:07:20.890Z,2.51
2023-04-28T02:11:20.870Z,2.52
2023-04-28T02:15:20.417Z,2.52
2023-04-28T02:19:20.663Z,2.52
2023-04-28T02:23:20.590Z,2.55
2023-04-28T02:27:20.488Z,2.55
2023-04-28T02:31:20.384Z,2.58
2023-04-28T02:35:20.691Z,2.6
2023-04-28T02:39:20.600Z,2.6
2023-04-28T02:43:20.672Z,2.63
2023-04-28T02:47:21.257Z,2.66
2023-04-28T02:51:21.014Z,2.66
2023-04-28T02:55:20.858Z,2.68
2023-04-28T02:59:20.840Z,2.69
2023-04-28T03:03:21.184Z,2.69
2023-04-28T03:07:20.390Z,2.71
2023-04-28T03:11:20.932Z,2.69
2023-04-28T03:15:20.551Z,2.69
2023-04-28T03:19:20.808Z,2.71
2023-04-28T03:23:20.096Z,2.71
2023-04-28T03:27:20.121Z,2.71
2023-04-28T03:31:20.444Z,2.71
2023-04-28T03:35:20.309Z,2.71
2023-04-28T03:39:20.326Z,2.71
2023-04-28T03:43:20.516Z,2.71
2023-04-28T03:47:21.204Z,2.71
2023-04-28T03:51:22.853Z,2.71
2023-04-28T03:55:20.193Z,2.71
2023-04-28T03:59:20.170Z,2.71
2023-04-28T04:03:22.222Z,2.71
2023-04-28T04:07:19.956Z,2.71
2023-04-28T04:11:23.595Z,2.68
2023-04-28T04:15:20.711Z,2.66
2023-04-28T04:19:20.808Z,2.66
2023-04-28T04:23:20.651Z,2.66
2023-04-28T04:27:20.832Z,2.66
2023-04-28T04:31:21.121Z,2.66
2023-04-28T04:35:21.050Z,2.65
2023-04-28T04:39:20.608Z,2.65
2023-04-28T04:43:35.849Z,2.63
2023-04-28T04:47:21.385Z,2.63
2023-04-28T04:51:20.824Z,2.62
2023-04-28T04:55:21.248Z,2.62
2023-04-28T04:59:20.872Z,2.62
2023-04-28T05:03:21.828Z,2.59
2023-04-28T05:07:20.640Z,2.6
2023-04-28T05:11:21.145Z,2.59
2023-04-28T05:15:20.019Z,2.6
2023-04-28T05:19:20.408Z,2.6
2023-04-28T05:23:20.532Z,2.6
2023-04-28T05:27:20.462Z,2.59
2023-04-28T05:31:21.014Z,2.58
2023-04-28T05:35:21.276Z,2.58
2023-04-28T05:39:20.077Z,2.58
2023-04-28T05:43:20.158Z,2.56
2023-04-28T05:47:38.324Z,2.56
2023-04-28T05:51:23.327Z,2.58
2023-04-28T05:55:20.854Z,2.55
2023-04-28T05:59:20.992Z,2.55
2023-04-28T06:03:25.614Z,2.54
2023-04-28T06:07:21.080Z,2.55
2023-04-28T06:11:21.058Z,2.55
2023-04-28T06:15:20.827Z,2.54
2023-04-28T06:19:23.339Z,2.52
2023-04-28T06:23:20.549Z,2.52
2023-04-28T06:27:20.650Z,2.52
2023-04-28T06:31:21.111Z,2.54
2023-04-28T06:35:21.323Z,2.52
2023-04-28T06:39:20.031Z,2.54
2023-04-28T06:43:20.127Z,2.52
2023-04-28T06:47:21.200Z,2.52
2023-04-28T06:51:20.763Z,2.52
2023-04-28T06:55:20.860Z,2.54
2023-04-28T06:59:21.289Z,2.54
2023-04-28T07:03:22.518Z,2.52
2023-04-28T07:07:20.019Z,2.52
2023-04-28T07:11:20.383Z,2.52
2023-04-28T07:15:21.771Z,2.52
2023-04-28T07:19:20.627Z,2.5
2023-04-28T07:23:20.434Z,2.5
2023-04-28T07:27:22.221Z,2.47
2023-04-28T07:31:33.165Z,2.46
2023-04-28T07:35:20.966Z,2.46
2023-04-28T07:39:20.908Z,2.44
2023-04-28T07:43:20.788Z,2.44
2023-04-28T07:47:21.322Z,2.44
2023-04-28T07:51:20.821Z,2.44
2023-04-28T07:55:22.284Z,2.43
2023-04-28T07:59:20.713Z,2.43
2023-04-28T08:03:21.954Z,2.43
2023-04-28T08:07:20.315Z,2.44
2023-04-28T08:11:20.318Z,2.44
2023-04-28T08:15:20.089Z,2.43
2023-04-28T08:19:20.796Z,2.44
2023-04-28T08:23:20.590Z,2.44
2023-04-28T08:27:20.513Z,2.41
2023-04-28T08:31:21.131Z,2.39
2023-04-28T08:35:22.834Z,2.39
2023-04-28T08:39:24.708Z,2.38
2023-04-28T08:43:20.998Z,2.38
2023-04-28T08:47:21.390Z,2.38
2023-04-28T08:51:20.761Z,2.38
2023-04-28T08:55:37.051Z,2.39
2023-04-28T08:59:20.971Z,2.39
2023-04-28T09:03:22.635Z,2.38
2023-04-28T09:07:20.361Z,2.38
2023-04-28T09:11:20.132Z,2.38
2023-04-28T09:15:20.139Z,2.42
2023-04-28T09:19:20.217Z,2.41
2023-04-28T09:23:37.229Z,2.41
2023-04-28T09:27:20.005Z,2.42
2023-04-28T09:31:20.920Z,2.43
2023-04-28T09:35:20.873Z,2.43
2023-04-28T09:39:20.745Z,2.42
2023-04-28T09:43:33.019Z,2.42
2023-04-28T09:47:21.009Z,2.42
2023-04-28T09:51:23.673Z,2.44
2023-04-28T09:55:20.757Z,2.55
2023-04-28T09:59:20.656Z,2.55
2023-04-28T10:03:54.667Z,2.58
2023-04-28T10:07:20.364Z,2.72
2023-04-28T10:11:20.468Z,2.72
2023-04-28T10:15:20.063Z,3.14
2023-04-28T10:19:20.622Z,3.91
2023-04-28T10:23:20.413Z,3.91
2023-04-28T10:27:20.322Z,3.97
2023-04-28T10:31:33.873Z,3.94
2023-04-28T10:35:20.561Z,3.94
2023-04-28T10:39:20.411Z,3.74
2023-04-28T10:43:20.820Z,3.57
2023-04-28T10:47:21.354Z,3.57
2023-04-28T10:51:35.957Z,3.74
2023-04-28T10:55:33.606Z,3.59
2023-04-28T10:59:21.061Z,3.59
2023-04-28T11:03:21.986Z,3.39
2023-04-28T11:07:20.491Z,3.5
2023-04-28T11:11:20.981Z,3.5
2023-04-28T11:15:21.164Z,4.11
2023-04-28T11:19:20.926Z,5.03
2023-04-28T11:23:20.763Z,5.03
2023-04-28T11:27:20.801Z,4.8
2023-04-28T11:31:21.130Z,5.11
2023-04-28T11:35:20.113Z,5.11
2023-04-28T11:39:20.051Z,4.99
2023-04-28T11:43:22.553Z,5.2
2023-04-28T11:47:20.998Z,5.2
2023-04-28T11:51:20.667Z,5.11
2023-04-28T11:55:20.617Z,6.25
2023-04-28T11:59:20.503Z,6.25
2023-04-28T12:03:22.612Z,6.25
2023-04-28T12:07:20.181Z,6.97
2023-04-28T12:11:21.401Z,6.97
2023-04-28T12:15:21.878Z,8.61
2023-04-28T12:19:20.546Z,9.04
2023-04-28T12:23:20.956Z,9.04
2023-04-28T12:27:20.870Z,9.04
2023-04-28T12:31:21.004Z,9.16
2023-04-28T12:35:21.134Z,9.16
2023-04-28T12:39:20.932Z,8.93
2023-04-28T12:43:20.288Z,9.04
2023-04-28T12:47:20.874Z,9.04
2023-04-28T12:51:20.553Z,8.4
2023-04-28T12:55:20.559Z,9.52
2023-04-28T12:59:21.050Z,9.52
2023-04-28T13:03:22.581Z,9.52
2023-04-28T13:07:20.028Z,8.93
2023-04-28T13:11:33.855Z,8.93
2023-04-28T13:15:20.012Z,8.82
2023-04-28T13:19:20.801Z,8.11
2023-04-28T13:23:20.096Z,8.11
2023-04-28T13:27:21.519Z,8.93
2023-04-28T13:31:21.144Z,8.61
2023-04-28T13:35:21.038Z,8.61
2023-04-28T13:39:23.530Z,8.3
2023-04-28T13:43:21.033Z,8.11
2023-04-28T13:47:20.489Z,8.11
2023-04-28T13:51:21.962Z,7.75
2023-04-28T13:55:20.970Z,7.34
2023-04-28T13:59:20.692Z,7.34
2023-04-28T14:03:22.514Z,7.11
2023-04-28T14:07:20.079Z,7.5
2023-04-28T14:11:20.348Z,7.5
2023-04-28T14:15:22.224Z,6.97
2023-04-28T14:19:20.271Z,6.82
2023-04-28T14:23:20.791Z,6.82
2023-04-28T14:27:21.202Z,6.25
2023-04-28T14:31:21.350Z,6.69
2023-04-28T14:35:21.132Z,6.69
2023-04-28T14:39:23.150Z,6.82
2023-04-28T14:43:20.715Z,6.76
2023-04-28T14:47:21.220Z,6.76
2023-04-28T14:51:21.871Z,7.5
2023-04-28T14:55:21.313Z,6.62
2023-04-28T14:59:20.863Z,6.62
2023-04-28T15:03:24.512Z,7.58
2023-04-28T15:07:20.316Z,7.93
2023-04-28T15:11:20.418Z,7.93
2023-04-28T15:15:20.587Z,8.11
2023-04-28T15:19:20.475Z,7.93
2023-04-28T15:23:20.733Z,7.93
2023-04-28T15:27:20.631Z,7.58
2023-04-28T15:31:20.965Z,7.34
2023-04-28T15:35:21.332Z,7.34
2023-04-28T15:39:19.972Z,6.69
2023-04-28T15:43:20.005Z,6.97
2023-04-28T15:47:20.472Z,6.97
2023-04-28T15:51:20.472Z,6.82
2023-04-28T15:55:20.264Z,6.13
2023-04-28T15:59:20.403Z,6.13
2023-04-28T16:03:21.374Z,5.51
2023-04-28T16:07:20.157Z,5.03
2023-04-28T16:11:20.183Z,5.03
2023-04-28T16:15:20.855Z,4.76
2023-04-28T16:19:21.283Z,4.65
2023-04-28T16:23:20.891Z,4.65
2023-04-28T16:27:20.792Z,4.83
2023-04-28T16:31:20.633Z,4.95
2023-04-28T16:35:23.052Z,4.95
2023-04-28T16:39:20.808Z,4.76
2023-04-28T16:43:20.077Z,4.55
2023-04-28T16:47:20.564Z,4.55
2023-04-28T16:51:20.987Z,4.38
2023-04-28T16:55:20.105Z,4.14
2023-04-28T16:59:21.028Z,4.14
2023-04-28T17:03:21.712Z,4.76
2023-04-28T17:07:20.250Z,5.07
2023-04-28T17:11:20.256Z,5.07
2023-04-28T17:15:20.291Z,4.62
2023-04-28T17:19:20.468Z,5.2
2023-04-28T17:23:20.525Z,5.2
2023-04-28T17:27:20.312Z,4.95
2023-04-28T17:31:21.771Z,5.07
2023-04-28T17:35:20.031Z,5.07
2023-04-28T17:39:20.344Z,5.97
2023-04-28T17:43:20.295Z,5.81
2023-04-28T17:47:20.803Z,5.81
2023-04-28T17:51:20.376Z,6.31
2023-04-28T17:55:20.312Z,4.99
2023-04-28T17:59:20.365Z,4.99
2023-04-28T18:03:22.025Z,4.99
2023-04-28T18:07:20.533Z,4.99
2023-04-28T18:11:20.195Z,4.99
2023-04-28T18:15:19.879Z,4.99
2023-04-28T18:19:20.762Z,4.99
2023-04-28T18:23:20.338Z,4.99
2023-04-28T18:27:20.143Z,4.99
2023-04-28T18:31:20.482Z,4.99
2023-04-28T18:35:20.633Z,4.99
2023-04-28T18:39:20.818Z,4.99
2023-04-28T18:43:20.718Z,4.99
2023-04-28T18:47:22.027Z,4.99
2023-04-28T18:51:20.850Z,4.99
2023-04-28T18:55:20.160Z,4.99
2023-04-28T18:59:20.264Z,4.99
2023-04-28T19:03:21.925Z,4.99
2023-04-28T19:07:20.549Z,4.99
2023-04-28T19:11:21.000Z,4.99
2023-04-28T19:15:20.899Z,4.99
2023-04-28T19:19:21.246Z,4.99
2023-04-28T19:23:20.078Z,4.99
2023-04-28T19:27:20.390Z,4.99
2023-04-28T19:31:20.649Z,4.99
2023-04-28T19:35:20.750Z,4.99
2023-04-28T19:39:20.804Z,4.99
2023-04-28T19:43:20.894Z,4.99
2023-04-28T19:47:21.235Z,4.99
2023-04-28T19:51:20.131Z,4.99
2023-04-28T19:55:22.048Z,4.99
2023-04-28T19:59:20.636Z,4.99
2023-04-28T20:03:21.739Z,4.99
2023-04-28T20:07:20.580Z,4.99
2023-04-28T20:11:20.132Z,4.99
2023-04-28T20:15:20.114Z,4.99
2023-04-28T20:19:20.146Z,4.99
2023-04-28T20:23:20.626Z,4.99
2023-04-28T20:27:20.401Z,4.99
2023-04-28T20:31:20.700Z,4.99
2023-04-28T20:35:20.968Z,4.99
2023-04-28T20:39:20.688Z,4.99
2023-04-28T20:43:20.635Z,4.99
2023-04-28T20:47:21.696Z,4.99
2023-04-28T20:51:20.813Z,4.99
2023-04-28T20:55:21.361Z,4.99
2023-04-28T20:59:20.098Z,4.99
2023-04-28T21:03:22.011Z,4.99
2023-04-28T21:07:20.460Z,4.99
2023-04-28T21:11:20.511Z,4.99
2023-04-28T21:15:20.620Z,4.99
2023-04-28T21:19:20.745Z,4.99
2023-04-28T21:23:20.860Z,4.99
2023-04-28T21:27:20.930Z,4.99
2023-04-28T21:31:20.814Z,4.99
2023-04-28T21:35:20.885Z,4.99
2023-04-28T21:39:20.971Z,4.99
2023-04-28T21:43:20.002Z,4.99
2023-04-28T21:47:21.151Z,4.99
2023-04-28T21:51:20.323Z,4.99
2023-04-28T21:55:20.593Z,4.99
2023-04-28T21:59:20.698Z,4.99
2023-04-28T22:03:22.563Z,4.99
2023-04-28T22:07:19.973Z,4.99
2023-04-28T22:11:20.406Z,4.99
2023-04-28T22:15:43.053Z,4.99
2023-04-28T22:19:21.077Z,4.99
2023-04-28T22:23:20.933Z,4.99
2023-04-28T22:27:20.047Z,4.99
2023-04-28T22:31:22.810Z,4.99
2023-04-28T22:35:20.775Z,4.99
2023-04-28T22:39:21.008Z,4.99
2023-04-28T22:43:19.929Z,4.99
2023-04-28T22:47:21.033Z,4.99
2023-04-28T22:51:20.788Z,4.99
2023-04-28T22:55:20.943Z,4.99
2023-04-28T22:59:19.991Z,4.99
2023-04-28T23:03:21.696Z,4.99
2023-04-28T23:07:20.324Z,4.99
2023-04-28T23:11:22.233Z,4.99
2023-04-28T23:15:20.991Z,4.99
2023-04-28T23:19:20.724Z,4.99
2023-04-28T23:23:20.182Z,4.99
2023-04-28T23:27:20.556Z,4.99
2023-04-28T23:31:20.772Z,4.99
2023-04-28T23:35:23.278Z,4.99
2023-04-28T23:39:20.092Z,4.99
2023-04-28T23:43:20.264Z,4.99
2023-04-28T23:47:20.705Z,4.99
2023-04-28T23:51:20.727Z,4.99
2023-04-28T23:55:21.067Z,4.99
2023-04-28T23:59:20.841Z,4.99
